Time;durP1;ratioP1;P1;durP2;ratioP2;P2;SDS_P1;SDS_P2;PMS_P1;PMS_P2;Temp;Humidity;BMP_temperature;BMP_pressure;BME280_temperature;BME280_humidity;BME280_pressure;Samples;Min_cycle;Max_cycle;Signal;HPM_P1;HPM_P2
2021/11/02 00:01:02;;;;;;;7.47;4.88;;;7.50;99.90;;;;;;5029815;28;20057;-78
2021/11/02 00:03:27;;;;;;;8.45;5.70;;;6.40;99.90;;;;;;5034773;28;20072;-78
2021/11/02 00:05:53;;;;;;;6.80;5.35;;;6.40;99.90;;;;;;5034265;28;20080;-80
2021/11/02 00:08:19;;;;;;;6.55;5.68;;;6.40;99.90;;;;;;5035037;28;20021;-79
2021/11/02 00:10:44;;;;;;;11.07;5.90;;;6.40;99.90;;;;;;5035036;28;20028;-79
2021/11/02 00:13:10;;;;;;;9.45;5.45;;;6.40;99.90;;;;;;5034163;28;20033;-78
2021/11/02 00:15:38;;;;;;;9.82;6.07;;;6.30;99.90;;;;;;5034290;28;20072;-80
2021/11/02 00:18:05;;;;;;;10.48;5.15;;;6.30;99.90;;;;;;5034095;28;20060;-79
2021/11/02 00:20:33;;;;;;;10.32;5.80;;;6.30;99.90;;;;;;5033695;28;20021;-79
2021/11/02 00:23:00;;;;;;;7.88;5.30;;;6.30;99.90;;;;;;5034419;28;20040;-79
2021/11/02 00:25:29;;;;;;;6.88;5.53;;;6.30;99.90;;;;;;5034223;28;20067;-78
2021/11/02 00:27:56;;;;;;;7.28;5.80;;;6.30;99.90;;;;;;5033762;28;20112;-79
2021/11/02 00:30:25;;;;;;;9.80;5.50;;;6.20;99.90;;;;;;5033847;28;20093;-79
2021/11/02 00:32:55;;;;;;;9.45;5.60;;;6.20;99.90;;;;;;5034379;28;20151;-78
2021/11/02 00:35:21;;;;;;;7.47;6.40;;;6.20;99.90;;;;;;5033248;28;20060;-79
2021/11/02 00:37:47;;;;;;;7.63;5.72;;;6.20;99.90;;;;;;5034120;28;20029;-77
2021/11/02 00:40:14;;;;;;;6.85;6.15;;;6.20;99.90;;;;;;5034211;28;20025;-77
2021/11/02 00:42:55;;;;;;;8.25;6.00;;;6.20;99.90;;;;;;5033019;28;20256;-78
2021/11/02 00:45:31;;;;;;;10.52;6.00;;;6.10;99.90;;;;;;5034070;28;20044;-78
2021/11/02 00:47:58;;;;;;;8.23;5.72;;;6.10;99.90;;;;;;5028029;28;20018;-78
2021/11/02 00:50:25;;;;;;;13.02;6.10;;;6.10;99.90;;;;;;5025347;28;20057;-78
2021/11/02 00:52:51;;;;;;;12.15;6.45;;;6.10;99.90;;;;;;5033861;28;20032;-79
2021/11/02 00:55:16;;;;;;;8.48;5.72;;;6.10;99.90;;;;;;5023667;28;20022;-78
2021/11/02 00:57:42;;;;;;;10.90;6.10;;;6.10;99.90;;;;;;5029360;28;20508;-79
2021/11/02 01:00:10;;;;;;;7.43;6.15;;;6.10;99.90;;;;;;5034241;28;20401;-79
2021/11/02 01:02:35;;;;;;;7.55;5.82;;;6.20;99.90;;;;;;5032783;28;20060;-78
2021/11/02 01:05:01;;;;;;;12.73;6.07;;;6.10;99.90;;;;;;5034191;28;20060;-78
2021/11/02 01:07:27;;;;;;;10.70;6.03;;;6.10;99.90;;;;;;5033632;28;20026;-79
2021/11/02 01:09:52;;;;;;;7.28;6.47;;;6.10;99.90;;;;;;5033029;28;20024;-79
2021/11/02 01:12:18;;;;;;;6.68;6.07;;;6.10;99.90;;;;;;5034094;28;20033;-79
2021/11/02 01:14:44;;;;;;;8.55;6.30;;;6.10;99.90;;;;;;5033601;28;20017;-79
2021/11/02 01:17:10;;;;;;;6.35;5.75;;;6.10;99.90;;;;;;5033315;28;20489;-78
2021/11/02 01:19:36;;;;;;;8.55;5.85;;;6.10;99.90;;;;;;5033724;28;20476;-79
2021/11/02 01:22:02;;;;;;;8.38;5.80;;;6.10;99.90;;;;;;5033951;28;20025;-79
2021/11/02 01:24:29;;;;;;;7.15;6.38;;;6.00;99.90;;;;;;5032665;28;20022;-78
2021/11/02 01:26:55;;;;;;;7.60;6.38;;;6.00;99.90;;;;;;5029749;28;20025;-78
2021/11/02 01:29:20;;;;;;;7.85;6.25;;;6.10;99.90;;;;;;5032455;28;20393;-77
2021/11/02 01:31:46;;;;;;;7.13;5.68;;;6.00;99.90;;;;;;5033122;28;20022;-77
2021/11/02 01:34:13;;;;;;;9.77;6.68;;;6.00;99.90;;;;;;5029953;28;20084;-77
2021/11/02 01:36:39;;;;;;;12.57;6.00;;;6.00;99.90;;;;;;5033336;28;20021;-78
2021/11/02 01:39:07;;;;;;;8.13;6.30;;;6.00;99.90;;;;;;5032184;28;20043;-78
2021/11/02 01:41:37;;;;;;;7.53;6.20;;;6.00;99.90;;;;;;5033064;28;20025;-78
2021/11/02 01:44:03;;;;;;;9.20;5.63;;;6.10;99.90;;;;;;5032314;28;20022;-79
2021/11/02 01:46:31;;;;;;;6.72;5.70;;;6.10;99.90;;;;;;5032553;28;20064;-79
2021/11/02 01:48:59;;;;;;;7.88;6.35;;;6.10;99.90;;;;;;5032883;28;20032;-78
2021/11/02 01:51:29;;;;;;;7.72;5.15;;;6.10;99.90;;;;;;5031855;28;20029;-77
2021/11/02 01:53:55;;;;;;;7.28;5.93;;;6.10;99.90;;;;;;5033058;28;20033;-78
2021/11/02 01:56:22;;;;;;;6.05;5.40;;;6.10;99.90;;;;;;5032650;28;20037;-79
2021/11/02 01:58:52;;;;;;;7.22;5.18;;;6.00;99.90;;;;;;5032402;28;20038;-78
2021/11/02 02:01:48;;;;;;;6.97;5.60;;;6.00;99.90;;;;;;5035250;28;20017;-78
2021/11/02 02:04:37;;;;;;;6.85;5.95;;;6.00;99.90;;;;;;5033016;28;20060;-79
2021/11/02 02:07:15;;;;;;;7.63;5.10;;;6.00;99.90;;;;;;5032093;28;20029;-80
2021/11/02 02:10:07;;;;;;;8.13;5.97;;;6.00;99.90;;;;;;5032191;28;20052;-78
2021/11/02 02:12:41;;;;;;;7.65;5.32;;;5.90;99.90;;;;;;5024832;28;20040;-79
2021/11/02 02:15:21;;;;;;;8.02;5.57;;;5.90;99.90;;;;;;5034289;28;20041;-78
2021/11/02 02:18:15;;;;;;;9.43;5.88;;;5.90;99.90;;;;;;5032742;28;20034;-78
2021/11/02 02:21:09;;;;;;;7.72;5.30;;;5.80;99.90;;;;;;5021440;28;20041;-78
2021/11/02 02:23:56;;;;;;;6.80;5.82;;;5.90;99.90;;;;;;5019146;28;20028;-79
2021/11/02 02:26:56;;;;;;;7.35;5.45;;;5.80;99.90;;;;;;5031632;28;20021;-78
2021/11/02 02:29:24;;;;;;;8.07;4.82;;;5.90;99.90;;;;;;5031318;28;20088;-78
2021/11/02 02:31:51;;;;;;;9.60;5.97;;;5.80;99.90;;;;;;5032807;28;20109;-79
2021/11/02 02:34:20;;;;;;;7.68;5.05;;;5.80;99.90;;;;;;5031583;28;20107;-77
2021/11/02 02:36:50;;;;;;;7.57;5.13;;;5.80;99.90;;;;;;5031885;28;20417;-78
2021/11/02 02:39:18;;;;;;;8.63;5.68;;;5.80;99.90;;;;;;5031911;28;20437;-79
2021/11/02 02:41:47;;;;;;;6.85;5.72;;;5.80;99.90;;;;;;5031351;28;20036;-78
2021/11/02 02:44:14;;;;;;;6.07;4.60;;;5.80;99.90;;;;;;5032266;28;20021;-79
2021/11/02 02:46:41;;;;;;;9.80;5.68;;;5.80;99.90;;;;;;5031958;28;20535;-78
2021/11/02 02:49:09;;;;;;;7.13;5.50;;;5.80;99.90;;;;;;5031712;28;20029;-77
2021/11/02 02:51:39;;;;;;;11.73;5.93;;;5.80;99.90;;;;;;5032605;28;20022;-78
2021/11/02 02:54:09;;;;;;;10.73;5.03;;;5.90;99.90;;;;;;5032519;28;20092;-79
2021/11/02 02:56:36;;;;;;;10.50;5.32;;;5.90;99.90;;;;;;5031341;28;20045;-79
2021/11/02 02:59:04;;;;;;;14.13;6.13;;;5.90;99.90;;;;;;5017951;28;20033;-80
2021/11/02 03:01:30;;;;;;;9.85;5.18;;;5.90;99.90;;;;;;5031253;28;20465;-78
2021/11/02 03:04:02;;;;;;;15.07;5.70;;;5.90;99.90;;;;;;5031802;28;20026;-78
2021/11/02 03:06:30;;;;;;;8.75;5.07;;;5.90;99.90;;;;;;5031632;28;20034;-78
2021/11/02 03:08:57;;;;;;;9.55;5.40;;;5.90;99.90;;;;;;5030756;28;20116;-79
2021/11/02 03:11:25;;;;;;;7.57;5.38;;;5.90;99.90;;;;;;5031716;28;20029;-79
2021/11/02 03:13:54;;;;;;;10.25;5.72;;;5.90;99.90;;;;;;5033938;28;20393;-79
2021/11/02 03:16:30;;;;;;;12.85;5.50;;;5.80;99.90;;;;;;5035112;28;20164;-79
2021/11/02 03:49:20;;;;;;;19.45;8.20;;;5.50;99.90;;;;;;5035951;28;20036;-80
2021/11/02 03:54:41;;;;;;;14.18;6.78;;;5.50;99.90;;;;;;5035352;28;20060;-77
2021/11/02 05:11:37;;;;;;;16.17;7.20;;;5.30;99.90;;;;;;5033481;28;20025;-80
2021/11/02 05:46:50;;;;;;;15.05;6.80;;;5.40;99.90;;;;;;5032757;28;20429;-79
2021/11/02 05:52:17;;;;;;;11.25;6.65;;;5.60;99.90;;;;;;5031995;28;20025;-79
2021/11/02 05:57:32;;;;;;;11.23;6.50;;;5.70;99.90;;;;;;5032168;28;20063;-79
2021/11/02 06:00:03;;;;;;;16.10;6.47;;;5.70;99.90;;;;;;5032833;28;20108;-78
2021/11/02 06:02:47;;;;;;;12.60;6.75;;;5.80;99.90;;;;;;5032022;28;20435;-77
2021/11/02 06:07:57;;;;;;;10.45;6.13;;;5.90;99.90;;;;;;5032043;28;20454;-78
2021/11/02 06:30:11;;;;;;;15.13;6.97;;;6.20;99.90;;;;;;5032658;28;20113;-78
2021/11/02 06:32:40;;;;;;;10.20;7.43;;;6.20;99.90;;;;;;5030419;28;20029;-78
2021/11/02 06:37:50;;;;;;;12.10;7.65;;;6.20;99.90;;;;;;5030411;28;20029;-78
2021/11/02 06:42:00;;;;;;;17.27;7.47;;;6.30;99.90;;;;;;5029657;28;20485;-78
2021/11/02 06:48:51;;;;;;;14.75;8.13;;;6.40;99.90;;;;;;5027749;28;20167;-78
2021/11/02 07:19:13;;;;;;;11.55;8.43;;;6.90;99.90;;;;;;5030738;28;20037;-78
2021/11/02 07:21:55;;;;;;;17.58;8.05;;;6.90;99.90;;;;;;5027868;28;20022;-78
2021/11/02 07:24:35;;;;;;;21.33;8.95;;;6.90;99.90;;;;;;5030232;28;20022;-78
2021/11/02 08:48:56;;;;;;;19.10;11.32;;;8.30;99.90;;;;;;5036054;28;20048;-81
2021/11/02 08:51:23;;;;;;;20.35;11.88;;;8.30;99.90;;;;;;5035367;28;20029;-81
2021/11/02 08:53:49;;;;;;;31.70;14.75;;;8.40;99.90;;;;;;5034721;28;20025;-82
2021/11/02 08:56:16;;;;;;;20.33;13.40;;;8.40;99.90;;;;;;5036875;28;20103;-80
2021/11/02 08:58:45;;;;;;;19.45;13.15;;;8.50;99.90;;;;;;5036269;28;20432;-82
2021/11/02 09:01:12;;;;;;;25.52;14.20;;;8.50;99.90;;;;;;5036291;28;20033;-83
2021/11/02 09:03:42;;;;;;;28.08;13.48;;;8.60;99.90;;;;;;5037594;28;20021;-81
2021/11/02 09:06:10;;;;;;;;;;;8.70;99.90;;;;;;5034973;28;20025;-77
2021/11/02 09:08:50;;;;;;;17.95;12.07;;;8.70;99.90;;;;;;5032629;28;20276;-77
2021/11/02 09:11:16;;;;;;;23.55;12.18;;;8.80;99.90;;;;;;5034736;28;20060;-80
2021/11/02 09:13:47;;;;;;;22.95;13.65;;;8.80;99.90;;;;;;5031086;28;20789;-79
2021/11/02 09:16:15;;;;;;;17.63;12.55;;;8.80;99.90;;;;;;5026265;28;20558;-81
2021/11/02 09:18:43;;;;;;;19.77;13.95;;;8.80;99.90;;;;;;5026648;28;20037;-80
2021/11/02 09:21:09;;;;;;;18.83;13.23;;;8.80;99.90;;;;;;5027104;28;20108;-81
2021/11/02 09:23:36;;;;;;;20.08;13.13;;;8.80;99.90;;;;;;5022356;28;20112;-81
2021/11/02 09:26:03;;;;;;;19.75;12.98;;;8.80;99.90;;;;;;5025223;28;20030;-79
2021/11/02 09:28:29;;;;;;;19.83;13.93;;;8.80;99.90;;;;;;5023244;28;20040;-81
2021/11/02 09:30:55;;;;;;;17.48;12.55;;;8.70;99.90;;;;;;5024346;28;20025;-80
2021/11/02 09:33:21;;;;;;;16.23;12.43;;;8.70;99.90;;;;;;5026401;28;20542;-82
2021/11/02 09:36:02;;;;;;;22.85;13.45;;;8.70;99.90;;;;;;5026150;28;20402;-82
2021/11/02 09:38:32;;;;;;;18.50;13.25;;;8.70;99.90;;;;;;5017797;28;20042;-82
2021/11/02 09:41:39;;;;;;;16.27;12.10;;;8.70;99.90;;;;;;5024215;28;20068;-82
2021/11/02 09:44:15;;;;;;;17.92;11.10;;;8.70;99.90;;;;;;5026269;28;20021;-82
2021/11/02 09:47:05;;;;;;;20.10;12.80;;;8.70;99.90;;;;;;5023519;28;20378;-82
2021/11/02 09:50:01;;;;;;;15.10;11.90;;;8.70;99.90;;;;;;5022037;28;20612;-83
2021/11/02 09:53:04;;;;;;;21.27;12.20;;;8.70;99.90;;;;;;5024248;28;20034;-83
2021/11/02 09:55:49;;;;;;;20.73;12.38;;;8.70;99.90;;;;;;5026017;28;20498;-81
2021/11/02 09:58:52;;;;;;;18.77;13.65;;;8.80;99.90;;;;;;5021301;28;20037;-85
2021/11/02 10:01:35;;;;;;;20.48;12.05;;;8.80;99.90;;;;;;5020525;28;20040;-85
2021/11/02 10:04:11;;;;;;;15.25;12.00;;;8.80;99.90;;;;;;5027907;28;20037;-84
2021/11/02 10:06:59;;;;;;;15.05;11.65;;;8.80;99.90;;;;;;5025241;28;20032;-84
2021/11/02 10:09:59;;;;;;;17.15;12.35;;;8.90;99.90;;;;;;5020698;28;20458;-84
2021/11/02 10:12:41;;;;;;;16.23;11.88;;;8.90;99.90;;;;;;5027590;28;20502;-84
2021/11/02 10:15:21;;;;;;;19.55;13.30;;;8.90;99.90;;;;;;5023742;28;20021;-83
2021/11/02 10:17:54;;;;;;;24.50;12.73;;;9.00;99.90;;;;;;5021176;28;20037;-84
2021/11/02 10:21:01;;;;;;;21.73;11.82;;;9.00;99.90;;;;;;5022251;28;20692;-83
2021/11/02 10:23:53;;;;;;;18.67;12.35;;;9.00;99.90;;;;;;5027429;28;20087;-84
2021/11/02 10:26:35;;;;;;;20.30;12.18;;;9.10;99.90;;;;;;5024464;28;20021;-84
2021/11/02 10:29:43;;;;;;;16.60;11.63;;;9.10;99.90;;;;;;5027531;28;20087;-85
2021/11/02 10:32:14;;;;;;;16.88;12.63;;;9.10;99.90;;;;;;5027409;28;20041;-85
2021/11/02 10:34:45;;;;;;;;;;;9.10;99.90;;;;;;5022111;28;20049;-84
2021/11/02 10:38:02;;;;;;;13.80;11.75;;;9.00;99.90;;;;;;5022447;28;19917;-85
2021/11/02 10:40:42;;;;;;;14.05;11.32;;;9.10;99.90;;;;;;4988674;28;20048;-84
2021/11/02 10:43:10;;;;;;;20.92;12.55;;;9.20;99.90;;;;;;5034125;28;20046;-83
2021/11/02 10:45:42;;;;;;;21.02;13.18;;;9.20;99.90;;;;;;5033564;28;20546;-84
2021/11/02 10:48:10;;;;;;;18.73;12.07;;;9.20;99.90;;;;;;5027867;28;20512;-84
2021/11/02 10:50:48;;;;;;;13.40;11.82;;;9.30;99.90;;;;;;5026422;28;20113;-84
2021/11/02 10:53:38;;;;;;;17.13;11.60;;;9.30;99.90;;;;;;5028104;28;20034;-84
2021/11/02 10:56:44;;;;;;;20.58;11.48;;;9.30;99.90;;;;;;5030138;28;20037;-85
2021/11/02 10:59:15;;;;;;;17.02;12.10;;;9.30;99.90;;;;;;5025756;28;20123;-84
2021/11/02 11:01:47;;;;;;;17.92;11.25;;;9.30;99.90;;;;;;5024425;28;20389;-85
2021/11/02 11:04:13;;;;;;;14.05;11.73;;;9.30;99.90;;;;;;5030909;28;20021;-84
2021/11/02 11:06:43;;;;;;;20.33;12.52;;;9.30;99.90;;;;;;5023689;28;20124;-84
2021/11/02 11:09:12;;;;;;;16.35;11.40;;;9.30;99.90;;;;;;5028029;28;20026;-84
2021/11/02 11:11:43;;;;;;;14.68;11.45;;;9.30;99.90;;;;;;5034652;28;20034;-85
2021/11/02 11:14:13;;;;;;;23.80;13.10;;;9.30;99.90;;;;;;5018380;28;20037;-84
2021/11/02 11:16:45;;;;;;;17.02;11.43;;;9.30;99.90;;;;;;5030728;28;20060;-85
2021/11/02 11:19:24;;;;;;;22.88;13.02;;;9.30;99.90;;;;;;5031669;28;20045;-84
2021/11/02 11:21:51;;;;;;;12.00;10.80;;;9.30;99.90;;;;;;5034234;28;20025;-84
2021/11/02 11:24:20;;;;;;;14.57;11.20;;;9.30;99.90;;;;;;5030956;28;20465;-84
2021/11/02 11:26:49;;;;;;;15.65;11.02;;;9.30;99.90;;;;;;5035706;28;20389;-81
2021/11/02 11:29:23;;;;;;;17.17;12.40;;;9.30;99.90;;;;;;5026174;28;20028;-83
2021/11/02 11:31:54;;;;;;;14.95;11.63;;;9.40;99.90;;;;;;5024934;28;20029;-82
2021/11/02 11:34:33;;;;;;;19.90;11.57;;;9.50;99.90;;;;;;5022310;28;20041;-82
2021/11/02 11:37:03;;;;;;;13.23;10.07;;;9.50;99.90;;;;;;5027862;28;20120;-83
2021/11/02 11:39:30;;;;;;;14.90;11.90;;;9.60;99.90;;;;;;5029149;28;20173;-82
2021/11/02 11:41:57;;;;;;;12.38;10.90;;;9.60;99.90;;;;;;5029494;28;20325;-83
2021/11/02 11:44:23;;;;;;;13.07;10.20;;;9.70;99.90;;;;;;5023871;28;20053;-83
2021/11/02 11:47:01;;;;;;;12.98;10.48;;;9.70;99.90;;;;;;5030143;28;20040;-71
2021/11/02 11:49:27;;;;;;;13.00;10.65;;;9.70;99.90;;;;;;5035650;28;20033;-81
2021/11/02 11:51:58;;;;;;;11.63;10.38;;;9.70;99.90;;;;;;5041724;28;20086;-81
2021/11/02 11:54:41;;;;;;;11.57;9.93;;;9.70;99.90;;;;;;5045769;28;20030;-82
2021/11/02 11:57:07;;;;;;;15.07;9.75;;;9.70;99.90;;;;;;5045020;28;20014;-82
2021/11/02 11:59:34;;;;;;;10.13;9.13;;;9.70;99.90;;;;;;5047490;28;20045;-82
2021/11/02 12:02:25;;;;;;;9.65;8.50;;;9.80;99.90;;;;;;5038914;28;20036;-82
2021/11/02 12:04:52;;;;;;;;;;;9.90;99.90;;;;;;5038224;28;20164;-82
2021/11/02 12:07:37;;;;;;;8.70;7.90;;;9.90;99.90;;;;;;5034564;28;19936;-81
2021/11/02 12:10:14;;;;;;;7.43;6.78;;;10.00;99.90;;;;;;5036586;28;20033;-83
2021/11/02 12:12:40;;;;;;;8.73;7.93;;;10.10;99.90;;;;;;5028914;28;20025;-81
2021/11/02 12:15:11;;;;;;;8.30;6.53;;;10.20;99.90;;;;;;5034040;28;20112;-82
2021/11/02 12:17:45;;;;;;;7.25;6.65;;;10.30;99.90;;;;;;5036152;28;20086;-82
2021/11/02 12:20:13;;;;;;;7.60;6.90;;;10.40;99.90;;;;;;5030644;28;20544;-82
2021/11/02 12:22:47;;;;;;;7.47;6.80;;;10.50;99.90;;;;;;5025442;28;20053;-82
2021/11/02 12:25:18;;;;;;;8.63;6.82;;;10.60;99.90;;;;;;5035133;28;20032;-81
2021/11/02 12:27:44;;;;;;;7.55;6.75;;;10.70;99.90;;;;;;5030851;28;20037;-81
2021/11/02 12:30:20;;;;;;;7.38;6.70;;;10.70;99.90;;;;;;5025154;28;20018;-82
2021/11/02 12:32:57;;;;;;;7.70;6.97;;;10.80;99.90;;;;;;5025525;28;20053;-81
2021/11/02 12:35:46;;;;;;;8.18;6.60;;;10.80;99.90;;;;;;5034517;28;20125;-81
2021/11/02 12:38:12;;;;;;;6.80;6.22;;;10.80;99.90;;;;;;5032599;28;20037;-81
2021/11/02 12:40:41;;;;;;;7.15;6.07;;;10.80;99.90;;;;;;5034247;28;20030;-81
2021/11/02 12:43:22;;;;;;;6.13;5.63;;;10.80;99.90;;;;;;5035423;28;20052;-81
2021/11/02 12:45:48;;;;;;;;;;;10.80;99.90;;;;;;5023591;28;20471;-81
2021/11/02 12:48:14;;;;;;;5.90;5.43;;;10.70;99.90;;;;;;5034239;28;19916;-81
2021/11/02 12:50:40;;;;;;;6.07;5.55;;;10.60;99.90;;;;;;5033985;28;20108;-82
2021/11/02 12:53:06;;;;;;;5.82;5.32;;;10.50;99.90;;;;;;5033558;28;20021;-82
2021/11/02 12:55:35;;;;;;;7.10;4.72;;;10.50;99.90;;;;;;5033263;28;20029;-81
2021/11/02 12:58:14;;;;;;;6.15;5.40;;;10.40;99.90;;;;;;5034296;28;20050;-82
2021/11/02 13:00:51;;;;;;;5.55;5.05;;;10.40;99.90;;;;;;5033399;28;20108;-80
2021/11/02 13:03:23;;;;;;;4.82;4.47;;;10.30;99.90;;;;;;5034264;28;20034;-80
2021/11/02 13:05:58;;;;;;;6.63;5.63;;;10.20;99.90;;;;;;5033609;28;20022;-81
2021/11/02 13:08:31;;;;;;;6.30;5.40;;;10.10;99.90;;;;;;5032707;28;20045;-82
2021/11/02 13:11:12;;;;;;;6.07;5.45;;;10.00;99.90;;;;;;5033732;28;20112;-83
2021/11/02 13:14:11;;;;;;;5.28;4.88;;;10.00;99.90;;;;;;5032717;28;20030;-83
2021/11/02 13:16:58;;;;;;;6.15;5.55;;;10.00;99.90;;;;;;5033583;28;20027;-82
2021/11/02 13:19:33;;;;;;;5.10;4.70;;;9.90;99.90;;;;;;5033334;28;20045;-82
2021/11/02 13:22:26;;;;;;;5.00;4.60;;;10.00;99.90;;;;;;5033071;28;20032;-82
2021/11/02 13:25:11;;;;;;;4.88;4.40;;;10.00;99.90;;;;;;5032962;28;20033;-82
2021/11/02 13:27:37;;;;;;;4.78;4.38;;;10.10;99.90;;;;;;5032509;28;20025;-82
2021/11/02 13:30:30;;;;;;;6.10;5.50;;;10.10;99.90;;;;;;5033542;28;20026;-82
2021/11/02 13:33:19;;;;;;;5.03;4.53;;;10.20;99.90;;;;;;5033580;28;20045;-81
2021/11/02 13:36:02;;;;;;;52.22;7.90;;;10.20;99.90;;;;;;5033166;28;20046;-82
2021/11/02 13:38:42;;;;;;;5.35;2.25;;;10.30;99.90;;;;;;5029864;28;20041;-82
2021/11/02 13:41:22;;;;;;;2.25;1.63;;;10.30;99.90;;;;;;5033382;28;20032;-80
2021/11/02 13:43:56;;;;;;;1.00;0.93;;;10.30;99.90;;;;;;5033186;28;20075;-81
2021/11/02 13:46:27;;;;;;;1.40;1.30;;;10.30;99.90;;;;;;5034342;28;20037;-81
2021/11/02 13:48:54;;;;;;;1.70;1.60;;;10.20;99.90;;;;;;5031863;28;20354;-82
2021/11/02 13:51:20;;;;;;;2.60;1.80;;;10.30;99.90;;;;;;5032561;28;20432;-82
2021/11/02 13:53:47;;;;;;;8.73;3.85;;;10.30;99.90;;;;;;5032526;28;20432;-82
2021/11/02 13:56:16;;;;;;;1.75;1.38;;;10.40;99.90;;;;;;5032151;28;20477;-82
2021/11/02 13:58:42;;;;;;;2.08;1.50;;;10.60;99.90;;;;;;5033385;28;20037;-82
2021/11/02 14:01:21;;;;;;;1.50;1.30;;;10.80;99.90;;;;;;5031990;28;20063;-80
2021/11/02 14:04:05;;;;;;;1.20;1.20;;;10.90;99.90;;;;;;5030470;28;20021;-82
2021/11/02 14:06:33;;;;;;;3.22;1.85;;;11.10;99.90;;;;;;5031294;28;20116;-80
2021/11/02 14:08:59;;;;;;;1.58;1.48;;;11.10;99.90;;;;;;5033449;28;20037;-81
2021/11/02 14:11:32;;;;;;;2.15;1.40;;;11.10;99.90;;;;;;5033466;28;20021;-82
2021/11/02 14:13:58;;;;;;;1.25;1.15;;;11.20;99.90;;;;;;5033606;28;20381;-81
2021/11/02 14:16:40;;;;;;;1.23;1.13;;;11.20;99.90;;;;;;5032583;28;20025;-81
2021/11/02 14:19:33;;;;;;;1.73;1.13;;;11.00;99.90;;;;;;5031682;28;20482;-81
2021/11/02 14:22:00;;;;;;;1.20;1.10;;;11.00;99.90;;;;;;5031969;28;20488;-81
2021/11/02 14:24:45;;;;;;;1.05;0.85;;;10.90;99.90;;;;;;5033700;28;20033;-82
2021/11/02 14:27:18;;;;;;;5.50;2.38;;;10.80;99.90;;;;;;5032364;28;20030;-82
2021/11/02 14:29:52;;;;;;;3.53;0.90;;;10.70;99.90;;;;;;5025106;28;20021;-82
2021/11/02 14:32:36;;;;;;;0.80;0.70;;;10.60;99.90;;;;;;5031445;28;20469;-82
2021/11/02 14:35:09;;;;;;;2.55;0.90;;;10.60;99.90;;;;;;5027092;28;20382;-83
2021/11/02 14:37:49;;;;;;;1.30;1.00;;;10.60;99.90;;;;;;5031522;28;20113;-82
2021/11/02 14:40:33;;;;;;;2.97;0.90;;;10.60;99.90;;;;;;5031610;28;20045;-81
2021/11/02 14:43:17;;;;;;;1.20;1.05;;;10.50;99.90;;;;;;5031756;28;20712;-81
2021/11/02 14:45:44;;;;;;;1.35;1.25;;;10.50;99.90;;;;;;5028826;28;20029;-82
2021/11/02 14:48:25;;;;;;;2.45;1.20;;;10.50;99.90;;;;;;5032103;28;20424;-83
2021/11/02 14:50:54;;;;;;;;;;;10.50;99.90;;;;;;5031115;28;20032;-82
2021/11/02 14:53:28;;;;;;;4.55;1.20;;;10.50;99.90;;;;;;5031150;28;19912;-80
2021/11/02 14:56:07;;;;;;;2.25;1.63;;;10.40;99.90;;;;;;5031257;28;20029;-81
2021/11/02 14:58:39;;;;;;;2.25;1.15;;;10.40;99.90;;;;;;5031571;28;20032;-81
2021/11/02 15:01:10;;;;;;;3.35;1.25;;;10.30;99.90;;;;;;5028951;28;20014;-82
2021/11/02 15:03:36;;;;;;;;;;;10.30;99.90;;;;;;5032362;28;20112;-82
2021/11/02 15:06:07;;;;;;;1.17;1.08;;;10.20;99.90;;;;;;5030782;28;20357;-81
2021/11/02 15:08:35;;;;;;;2.17;1.45;;;10.20;99.90;;;;;;5031404;28;20462;-82
2021/11/02 15:11:06;;;;;;;1.80;1.25;;;10.20;99.90;;;;;;5035694;28;20385;-81
2021/11/02 15:13:31;;;;;;;3.45;1.08;;;10.20;99.90;;;;;;5036173;28;20021;-82
2021/11/02 15:16:01;;;;;;;5.07;1.88;;;10.10;99.90;;;;;;5036901;28;20022;-81
2021/11/02 15:19:00;;;;;;;5.63;1.73;;;10.10;99.90;;;;;;5035696;28;20028;-82
2021/11/02 15:21:56;;;;;;;3.22;2.38;;;10.10;99.90;;;;;;5012026;28;20112;-82
2021/11/02 15:24:30;;;;;;;3.65;2.40;;;10.10;99.90;;;;;;5035663;28;20018;-85
2021/11/02 15:27:17;;;;;;;3.55;1.27;;;10.10;99.90;;;;;;5034474;28;20033;-80
2021/11/02 15:29:49;;;;;;;4.22;1.38;;;10.00;99.90;;;;;;5035435;28;20060;-81
2021/11/02 15:32:19;;;;;;;5.68;1.33;;;10.00;99.90;;;;;;5035815;28;20029;-81
2021/11/02 15:34:49;;;;;;;2.05;1.20;;;9.90;99.90;;;;;;5034955;28;20041;-80
2021/11/02 15:37:25;;;;;;;1.90;1.00;;;9.90;99.90;;;;;;5035836;28;20030;-80
2021/11/02 15:40:11;;;;;;;3.17;1.42;;;9.80;99.90;;;;;;5036299;28;20068;-80
2021/11/02 15:42:47;;;;;;;1.48;0.90;;;9.90;99.90;;;;;;5030312;28;20477;-79
2021/11/02 15:45:23;;;;;;;1.30;0.82;;;9.90;99.90;;;;;;5036177;28;20028;-82
2021/11/02 15:47:51;;;;;;;2.72;1.60;;;9.80;99.90;;;;;;5036499;28;20013;-80
2021/11/02 15:50:27;;;;;;;5.88;0.80;;;9.80;99.90;;;;;;5035376;28;20046;-80
2021/11/02 15:53:00;;;;;;;1.73;1.10;;;9.90;99.90;;;;;;5037359;28;20060;-80
2021/11/02 15:55:27;;;;;;;3.10;1.00;;;9.90;99.90;;;;;;5037698;28;20033;-80
2021/11/02 15:57:57;;;;;;;1.63;1.23;;;9.80;99.90;;;;;;5036777;28;20075;-80
2021/11/02 16:00:30;;;;;;;0.95;0.85;;;9.80;99.90;;;;;;5036533;28;20025;-80
2021/11/02 16:02:56;;;;;;;1.85;1.23;;;9.80;99.90;;;;;;5034413;28;20017;-80
2021/11/02 16:05:26;;;;;;;1.40;1.10;;;9.80;99.90;;;;;;5034216;28;20022;-79
2021/11/02 16:07:54;;;;;;;1.02;0.95;;;9.70;99.90;;;;;;5027595;28;20041;-81
2021/11/02 16:10:27;;;;;;;1.67;1.58;;;9.70;99.90;;;;;;5033994;28;20025;-80
2021/11/02 16:13:02;;;;;;;2.30;1.10;;;9.70;99.90;;;;;;5031218;28;20017;-80
2021/11/02 16:15:31;;;;;;;2.22;0.80;;;9.60;99.90;;;;;;5032197;28;20108;-80
2021/11/02 16:18:03;;;;;;;3.33;1.13;;;9.70;99.90;;;;;;5032346;28;20022;-79
2021/11/02 16:20:40;;;;;;;3.67;2.20;;;9.60;99.90;;;;;;5032427;28;20444;-80
2021/11/02 16:23:15;;;;;;;0.90;0.90;;;9.60;99.90;;;;;;5032740;28;20017;-80
2021/11/02 16:25:44;;;;;;;0.80;0.80;;;9.60;99.90;;;;;;5033102;28;20402;-80
2021/11/02 16:28:20;;;;;;;1.45;1.27;;;9.50;99.90;;;;;;5031696;28;20036;-78
2021/11/02 16:30:53;;;;;;;1.17;1.00;;;9.50;99.90;;;;;;5028963;28;20022;-80
2021/11/02 16:33:34;;;;;;;2.38;1.30;;;9.40;99.90;;;;;;5031774;28;20032;-80
2021/11/02 16:36:24;;;;;;;3.75;2.35;;;9.40;99.90;;;;;;5033571;28;20122;-82
2021/11/02 16:39:01;;;;;;;5.03;2.78;;;9.30;99.90;;;;;;5033773;28;20605;-80
2021/11/02 16:41:32;;;;;;;1.80;1.48;;;9.30;99.90;;;;;;5033460;28;20471;-81
2021/11/02 16:44:07;;;;;;;4.88;1.45;;;9.20;99.90;;;;;;5030259;28;20041;-80
2021/11/02 16:46:39;;;;;;;1.60;1.33;;;8.90;99.90;;;;;;5031716;28;20386;-80
2021/11/02 16:49:24;;;;;;;2.88;2.50;;;9.30;99.90;;;;;;5033626;28;20112;-79
2021/11/02 16:51:56;;;;;;;3.03;1.85;;;9.20;99.90;;;;;;5033381;28;20017;-79
2021/11/02 16:54:32;;;;;;;4.13;2.40;;;9.20;99.90;;;;;;5033814;28;20048;-80
2021/11/02 16:57:05;;;;;;;5.07;3.10;;;9.20;99.90;;;;;;5034119;28;20032;-81
2021/11/02 16:59:40;;;;;;;6.70;3.33;;;9.10;99.90;;;;;;5033085;28;20100;-81
2021/11/02 17:02:30;;;;;;;6.57;2.92;;;9.20;99.90;;;;;;5033930;28;20022;-82
2021/11/02 17:05:17;;;;;;;8.65;2.58;;;9.20;99.90;;;;;;5030524;28;20056;-82
2021/11/02 17:07:50;;;;;;;44.15;11.98;;;9.20;99.90;;;;;;5032848;28;20025;-81
2021/11/02 17:10:22;;;;;;;10.02;3.90;;;9.20;99.90;;;;;;5033989;28;20382;-82
2021/11/02 17:12:57;;;;;;;7.47;3.40;;;9.20;99.90;;;;;;5034108;28;20056;-82
2021/11/02 17:15:25;;;;;;;3.95;2.60;;;9.20;99.90;;;;;;5036242;28;20029;-84
2021/11/02 17:17:52;;;;;;;3.95;2.80;;;9.20;99.90;;;;;;5038439;28;20045;-82
2021/11/02 17:20:18;;;;;;;3.70;2.40;;;9.20;99.90;;;;;;5035160;28;20032;-83
2021/11/02 17:22:47;;;;;;;4.43;2.75;;;9.20;99.90;;;;;;5035293;28;20034;-83
2021/11/02 17:25:15;;;;;;;4.13;3.42;;;9.20;99.90;;;;;;5033301;28;20025;-82
2021/11/02 17:27:42;;;;;;;5.57;3.45;;;9.30;99.90;;;;;;5033981;28;20116;-82
2021/11/02 17:30:16;;;;;;;10.00;5.20;;;9.20;99.90;;;;;;5033507;28;20465;-82
2021/11/02 17:32:42;;;;;;;5.32;4.10;;;9.30;99.90;;;;;;5033178;28;20028;-83
2021/11/02 17:35:08;;;;;;;7.15;5.60;;;9.30;99.90;;;;;;5032620;28;20053;-82
2021/11/02 17:37:35;;;;;;;8.00;6.72;;;9.30;99.90;;;;;;5034556;28;20091;-83
2021/11/02 17:40:01;;;;;;;8.80;7.55;;;9.30;99.90;;;;;;5049060;28;20038;-84
2021/11/02 17:42:27;;;;;;;9.55;7.90;;;9.30;99.90;;;;;;5035929;28;20056;-82
2021/11/02 17:44:52;;;;;;;8.25;7.43;;;9.30;99.90;;;;;;5035546;28;20030;-82
2021/11/02 17:47:19;;;;;;;13.90;7.82;;;9.30;99.90;;;;;;5033380;28;20022;-83
2021/11/02 17:49:46;;;;;;;5.20;3.78;;;9.30;99.90;;;;;;5032669;28;20064;-81
2021/11/02 17:52:12;;;;;;;2.60;1.50;;;9.30;99.90;;;;;;5032745;28;20029;-82
2021/11/02 17:54:39;;;;;;;1.73;1.38;;;9.20;99.90;;;;;;5032497;28;20033;-82
2021/11/02 17:57:07;;;;;;;3.17;1.20;;;9.20;99.90;;;;;;5033496;28;20104;-82
2021/11/02 17:59:33;;;;;;;1.10;0.80;;;9.10;99.90;;;;;;5033004;28;20037;-83
2021/11/02 18:02:04;;;;;;;1.48;0.95;;;9.10;99.90;;;;;;5033092;28;20036;-83
2021/11/02 18:04:32;;;;;;;1.17;0.73;;;8.90;99.90;;;;;;5030536;28;20374;-82
2021/11/02 18:06:58;;;;;;;0.65;0.50;;;8.80;99.90;;;;;;5031508;28;20049;-81
2021/11/02 18:09:24;;;;;;;2.92;0.47;;;8.70;99.90;;;;;;5028267;28;20108;-82